Time;durP1;ratioP1;P1;durP2;ratioP2;P2;SDS_P1;SDS_P2;PMS_P1;PMS_P2;Temp;Humidity;BMP_temperature;BMP_pressure;BME280_temperature;BME280_humidity;BME280_pressure;Samples;Min_cycle;Max_cycle;Signal;HPM_P1;HPM_P2
2022/07/10 00:02:20;;;;;;;5.13;1.53;;;14.40;92.30;;;;;;5014470;28;20438;-61
2022/07/10 00:04:48;;;;;;;2.83;2.00;;;14.40;92.40;;;;;;5013855;28;20569;-61
2022/07/10 00:07:15;;;;;;;3.13;1.50;;;14.30;92.40;;;;;;5015309;28;20469;-61
2022/07/10 00:09:42;;;;;;;3.80;1.40;;;14.30;92.40;;;;;;5014491;28;20869;-61
2022/07/10 00:12:10;;;;;;;7.83;1.93;;;14.30;92.40;;;;;;5015552;28;20524;-61
2022/07/10 00:14:37;;;;;;;6.97;2.00;;;14.30;92.40;;;;;;5015855;28;20540;-60
2022/07/10 00:17:06;;;;;;;3.27;1.83;;;14.30;92.40;;;;;;5017701;28;20469;-60
2022/07/10 00:19:33;;;;;;;4.53;1.50;;;14.30;92.50;;;;;;5018068;28;20500;-61
2022/07/10 00:22:00;;;;;;;4.90;1.60;;;14.30;92.60;;;;;;5017007;28;20935;-61
2022/07/10 00:24:28;;;;;;;2.77;1.53;;;14.30;92.60;;;;;;5014764;28;20492;-62
2022/07/10 00:26:55;;;;;;;3.53;1.80;;;14.30;92.60;;;;;;5019053;28;20453;-61
2022/07/10 00:29:22;;;;;;;3.40;1.70;;;14.30;92.60;;;;;;5018110;28;20453;-61
2022/07/10 00:31:50;;;;;;;6.10;2.00;;;14.30;92.70;;;;;;5017448;28;20453;-62
2022/07/10 00:34:18;;;;;;;3.30;1.60;;;14.30;92.70;;;;;;5017091;28;20505;-61
2022/07/10 00:36:46;;;;;;;3.60;1.33;;;14.30;92.90;;;;;;5017371;28;20522;-61
2022/07/10 00:39:14;;;;;;;2.97;1.23;;;14.30;93.10;;;;;;5017021;28;20446;-61
2022/07/10 00:41:41;;;;;;;4.23;1.10;;;14.20;93.00;;;;;;5017229;28;20964;-61
2022/07/10 00:44:08;;;;;;;3.30;1.20;;;14.20;93.10;;;;;;5017066;28;20470;-61
2022/07/10 00:46:36;;;;;;;6.47;1.43;;;14.20;93.10;;;;;;5016955;28;20445;-61
2022/07/10 00:49:03;;;;;;;4.40;1.37;;;14.10;93.10;;;;;;5016600;28;20500;-61
2022/07/10 00:51:33;;;;;;;3.50;1.33;;;14.10;93.20;;;;;;5016818;28;20445;-62
2022/07/10 00:54:01;;;;;;;4.10;1.20;;;14.10;93.30;;;;;;5016626;28;21068;-61
2022/07/10 00:56:29;;;;;;;3.90;1.30;;;14.10;93.30;;;;;;5016825;28;20456;-61
2022/07/10 00:58:57;;;;;;;3.20;1.30;;;14.10;93.40;;;;;;5016387;28;20954;-61
2022/07/10 01:01:25;;;;;;;4.77;1.80;;;14.10;93.50;;;;;;5018235;28;20454;-61
2022/07/10 01:03:52;;;;;;;2.30;0.90;;;14.00;93.60;;;;;;5020358;28;20500;-62
2022/07/10 01:06:19;;;;;;;3.53;1.67;;;14.00;93.60;;;;;;5019246;28;20481;-61
2022/07/10 01:08:48;;;;;;;5.80;1.37;;;14.00;93.80;;;;;;5008120;28;20536;-61
2022/07/10 01:11:16;;;;;;;7.97;1.70;;;14.00;93.90;;;;;;5017708;28;20504;-61
2022/07/10 01:13:44;;;;;;;6.53;1.40;;;14.00;93.90;;;;;;5015856;28;20517;-61
2022/07/10 01:16:11;;;;;;;3.33;1.20;;;14.00;94.00;;;;;;5016156;28;20483;-61
2022/07/10 01:18:39;;;;;;;3.50;1.43;;;14.00;94.00;;;;;;5015932;28;20797;-61
2022/07/10 01:21:23;;;;;;;2.83;1.27;;;14.00;94.00;;;;;;5015937;28;20536;-61
2022/07/10 01:23:51;;;;;;;3.93;1.63;;;14.00;94.10;;;;;;5016022;28;20465;-61
2022/07/10 01:26:20;;;;;;;4.73;1.60;;;13.90;94.00;;;;;;5016293;28;20515;-62
2022/07/10 01:28:49;;;;;;;4.60;1.67;;;14.00;94.10;;;;;;5016166;28;20457;-61
2022/07/10 01:31:18;;;;;;;3.90;1.67;;;13.90;94.00;;;;;;5016362;28;20504;-61
2022/07/10 01:33:45;;;;;;;3.97;1.57;;;13.90;94.10;;;;;;5016297;28;20466;-61
2022/07/10 01:36:14;;;;;;;9.00;1.50;;;13.90;94.20;;;;;;5015495;28;20482;-60
2022/07/10 01:38:42;;;;;;;3.83;1.63;;;13.90;94.20;;;;;;5015744;28;20481;-63
2022/07/10 01:41:09;;;;;;;5.50;1.23;;;13.90;94.20;;;;;;5015859;28;20446;-61
2022/07/10 01:43:37;;;;;;;3.27;1.43;;;13.90;94.20;;;;;;5016124;28;20544;-60
2022/07/10 01:46:04;;;;;;;5.70;1.10;;;13.90;94.30;;;;;;5016522;28;20450;-60
2022/07/10 01:48:32;;;;;;;2.30;1.10;;;13.90;94.40;;;;;;5016287;28;20937;-61
2022/07/10 01:50:59;;;;;;;6.30;2.57;;;13.80;94.40;;;;;;5015897;28;20450;-61
2022/07/10 01:53:28;;;;;;;6.23;2.03;;;13.80;94.50;;;;;;5015801;28;20532;-61
2022/07/10 01:55:56;;;;;;;3.63;1.13;;;13.80;94.50;;;;;;5015459;28;20565;-62
2022/07/10 01:58:23;;;;;;;4.20;1.37;;;13.80;94.50;;;;;;5015574;28;20521;-61
2022/07/10 02:00:50;;;;;;;4.30;1.77;;;13.80;94.80;;;;;;5015379;28;20513;-62
2022/07/10 02:06:03;;;;;;;3.63;1.20;;;13.80;95.10;;;;;;5014791;28;20453;-61
2022/07/10 02:08:31;;;;;;;2.10;1.10;;;13.80;95.40;;;;;;5015148;28;20923;-62
2022/07/10 02:10:59;;;;;;;4.40;1.47;;;13.80;95.60;;;;;;5015172;28;20970;-61
2022/07/10 02:13:27;;;;;;;4.03;1.23;;;13.80;95.80;;;;;;5015340;28;20478;-61
2022/07/10 02:15:55;;;;;;;6.00;1.40;;;13.80;95.80;;;;;;5014883;28;20516;-61
2022/07/10 02:18:23;;;;;;;2.60;1.23;;;13.80;95.90;;;;;;5015522;28;20454;-62
2022/07/10 02:20:51;;;;;;;5.83;1.27;;;13.70;96.00;;;;;;5014532;28;20990;-62
2022/07/10 02:23:19;;;;;;;5.47;1.37;;;13.70;96.10;;;;;;5015130;28;20981;-61
2022/07/10 02:25:48;;;;;;;3.30;1.13;;;13.70;96.10;;;;;;5014751;28;20453;-61
2022/07/10 02:28:15;;;;;;;2.80;1.17;;;13.70;96.20;;;;;;5015027;28;20545;-61
2022/07/10 02:30:43;;;;;;;5.33;1.30;;;13.70;96.30;;;;;;5014872;28;20850;-60
2022/07/10 02:33:11;;;;;;;2.10;0.93;;;13.70;96.30;;;;;;5014936;28;20477;-61
2022/07/10 02:35:38;;;;;;;3.47;1.13;;;13.70;96.40;;;;;;5014506;28;20473;-60
2022/07/10 02:38:05;;;;;;;2.50;1.27;;;13.70;96.40;;;;;;5015179;28;20450;-61
2022/07/10 02:40:33;;;;;;;2.50;1.23;;;13.70;96.50;;;;;;5014900;28;20529;-61
2022/07/10 02:43:01;;;;;;;8.03;1.97;;;13.70;96.50;;;;;;5014368;28;20458;-61
2022/07/10 02:45:28;;;;;;;1.50;1.20;;;13.70;96.50;;;;;;5014362;28;20478;-61
2022/07/10 02:47:56;;;;;;;2.90;1.03;;;13.70;96.50;;;;;;5014388;28;20879;-61
2022/07/10 02:50:23;;;;;;;3.20;1.40;;;13.60;96.60;;;;;;5014086;28;20537;-60
2022/07/10 02:52:51;;;;;;;2.73;1.10;;;13.60;96.70;;;;;;5014739;28;20492;-60
2022/07/10 02:55:18;;;;;;;4.63;1.33;;;13.60;96.90;;;;;;5014107;28;20523;-61
2022/07/10 02:57:45;;;;;;;2.87;1.23;;;13.60;96.90;;;;;;5017082;28;20477;-60
2022/07/10 03:00:15;;;;;;;1.43;1.07;;;13.60;97.20;;;;;;5021627;28;20442;-60
2022/07/10 03:02:43;;;;;;;4.03;1.00;;;13.60;97.40;;;;;;5015462;28;20453;-62
2022/07/10 03:05:10;;;;;;;1.83;1.20;;;13.60;97.70;;;;;;5014205;28;20470;-61
2022/07/10 03:07:37;;;;;;;4.10;1.27;;;13.50;97.60;;;;;;5014103;28;20450;-61
2022/07/10 03:10:05;;;;;;;5.50;1.50;;;13.50;97.90;;;;;;5014249;28;20524;-61
2022/07/10 03:12:33;;;;;;;4.73;1.30;;;13.50;98.00;;;;;;5014047;28;20496;-60
2022/07/10 03:15:00;;;;;;;4.40;1.43;;;13.50;98.10;;;;;;5013536;28;20499;-60
2022/07/10 03:17:29;;;;;;;3.13;1.00;;;13.50;98.20;;;;;;5013625;28;20446;-62
2022/07/10 03:19:56;;;;;;;3.17;1.00;;;13.50;98.40;;;;;;5013916;28;20861;-62
2022/07/10 03:22:23;;;;;;;3.33;1.07;;;13.50;98.50;;;;;;5015120;28;20470;-61
2022/07/10 03:24:50;;;;;;;8.57;1.50;;;13.50;98.60;;;;;;5020462;28;20985;-61
2022/07/10 03:27:18;;;;;;;5.17;1.53;;;13.50;98.80;;;;;;5025221;28;20457;-60
2022/07/10 03:29:46;;;;;;;2.37;1.23;;;13.60;98.70;;;;;;5033276;28;20426;-62
2022/07/10 03:32:13;;;;;;;6.10;1.60;;;13.60;98.80;;;;;;5032331;28;20446;-61
2022/07/10 03:34:42;;;;;;;4.20;1.50;;;13.60;98.80;;;;;;5032130;28;20528;-62
2022/07/10 03:37:09;;;;;;;3.00;0.97;;;13.60;98.80;;;;;;5028480;28;20450;-60
2022/07/10 03:39:36;;;;;;;5.87;1.77;;;13.60;98.90;;;;;;5020495;28;20799;-60
2022/07/10 03:42:04;;;;;;;4.23;1.80;;;13.60;99.00;;;;;;5017219;28;20446;-61
2022/07/10 03:44:31;;;;;;;5.47;1.30;;;13.60;99.10;;;;;;5019037;28;20470;-61
2022/07/10 03:46:58;;;;;;;4.07;1.60;;;13.60;99.10;;;;;;5016716;28;20989;-60
2022/07/10 03:49:26;;;;;;;3.97;1.13;;;13.60;99.10;;;;;;5016740;28;20454;-61
2022/07/10 03:51:54;;;;;;;4.27;1.23;;;13.60;99.20;;;;;;5016473;28;20446;-61
2022/07/10 03:54:22;;;;;;;2.07;1.30;;;13.60;99.30;;;;;;5016861;28;20476;-61
2022/07/10 03:59:34;;;;;;;3.50;1.43;;;13.60;99.30;;;;;;5017267;28;20433;-60
2022/07/10 04:02:01;;;;;;;3.27;1.40;;;13.60;99.30;;;;;;5016929;28;20458;-61
2022/07/10 04:04:28;;;;;;;3.60;1.70;;;13.70;99.40;;;;;;5020375;28;20552;-62
2022/07/10 04:10:00;;;;;;;4.03;1.40;;;13.70;99.30;;;;;;5137044;27;20564;-61
2022/07/10 04:12:28;;;;;;;7.63;1.80;;;13.70;99.50;;;;;;5139058;27;20471;-60
2022/07/10 04:14:56;;;;;;;3.20;1.23;;;13.70;99.50;;;;;;5141709;22;20541;-62
2022/07/10 04:17:23;;;;;;;8.33;2.03;;;13.70;99.50;;;;;;5110144;28;20533;-61
2022/07/10 04:19:50;;;;;;;5.27;1.50;;;13.70;99.50;;;;;;5110127;28;20445;-61
2022/07/10 04:22:17;;;;;;;3.93;1.67;;;13.70;99.50;;;;;;5110351;28;20475;-61
2022/07/10 04:24:45;;;;;;;3.53;1.50;;;13.70;99.50;;;;;;5121495;28;20560;-61
2022/07/10 04:27:15;;;;;;;7.83;1.53;;;13.80;99.50;;;;;;5131241;28;20480;-61
2022/07/10 04:29:42;;;;;;;3.93;1.83;;;13.80;99.50;;;;;;5130787;28;20556;-62
2022/07/10 04:32:09;;;;;;;4.63;1.73;;;13.80;99.40;;;;;;5130692;28;20498;-61
2022/07/10 04:34:37;;;;;;;5.37;1.20;;;13.80;99.50;;;;;;5130640;28;20486;-61
2022/07/10 04:37:05;;;;;;;3.13;1.50;;;13.80;99.40;;;;;;5130770;28;20535;-61
2022/07/10 04:39:32;;;;;;;2.17;1.20;;;13.90;99.40;;;;;;5130596;28;20988;-61
2022/07/10 04:41:59;;;;;;;4.33;1.60;;;13.90;99.40;;;;;;5130441;28;20528;-61
2022/07/10 04:44:28;;;;;;;8.97;2.40;;;13.90;99.40;;;;;;5130464;28;20460;-61
2022/07/10 04:46:55;;;;;;;2.03;1.10;;;13.80;99.60;;;;;;5130403;28;20449;-61
2022/07/10 04:49:22;;;;;;;5.40;1.20;;;13.90;99.30;;;;;;5130119;28;20509;-62
2022/07/10 04:51:50;;;;;;;3.87;1.30;;;13.90;99.30;;;;;;5130700;28;20449;-61
2022/07/10 04:54:17;;;;;;;5.20;1.53;;;13.90;99.20;;;;;;5130336;28;20502;-61
2022/07/10 04:56:45;;;;;;;2.97;1.30;;;13.90;99.00;;;;;;5130276;28;20445;-61
2022/07/10 04:59:12;;;;;;;3.43;1.37;;;13.90;98.90;;;;;;5130459;28;20498;-61
2022/07/10 05:01:41;;;;;;;5.60;2.03;;;14.00;98.80;;;;;;5130078;28;20490;-61
2022/07/10 05:04:09;;;;;;;7.83;1.57;;;14.00;98.70;;;;;;5130502;28;20514;-61
2022/07/10 05:06:36;;;;;;;2.97;1.50;;;14.00;98.50;;;;;;5129889;28;20445;-61
2022/07/10 05:09:04;;;;;;;4.33;1.40;;;14.00;98.40;;;;;;5129965;28;20472;-61
2022/07/10 05:11:32;;;;;;;3.27;1.10;;;14.10;98.30;;;;;;5130182;28;21001;-61
2022/07/10 05:13:59;;;;;;;3.30;1.37;;;14.10;98.30;;;;;;5129414;28;20461;-62
2022/07/10 05:16:27;;;;;;;2.40;1.20;;;14.10;98.10;;;;;;5130295;28;20776;-61
2022/07/10 05:18:55;;;;;;;4.13;1.33;;;14.20;98.00;;;;;;5129845;28;20452;-61
2022/07/10 05:21:23;;;;;;;5.53;1.13;;;14.20;97.80;;;;;;5115634;28;20485;-61
2022/07/10 05:23:50;;;;;;;4.73;1.13;;;14.20;97.70;;;;;;5116194;28;20987;-61
2022/07/10 05:26:17;;;;;;;2.03;1.10;;;14.20;97.70;;;;;;5116282;28;20858;-61
2022/07/10 05:28:44;;;;;;;4.43;1.37;;;14.20;97.70;;;;;;5115839;28;20505;-62
2022/07/10 05:31:12;;;;;;;3.10;1.63;;;14.20;97.80;;;;;;5115664;28;20545;-61
2022/07/10 05:33:40;;;;;;;5.60;1.27;;;14.20;97.70;;;;;;5115988;28;20447;-61
2022/07/10 05:36:09;;;;;;;6.00;1.30;;;14.20;97.60;;;;;;5115587;28;20446;-61
2022/07/10 05:38:36;;;;;;;3.70;1.23;;;14.20;97.60;;;;;;5117018;28;20503;-60
2022/07/10 05:41:04;;;;;;;3.50;1.20;;;14.20;97.60;;;;;;5104992;28;20442;-61
2022/07/10 05:43:32;;;;;;;2.90;1.50;;;14.20;97.60;;;;;;5103963;28;20446;-61
2022/07/10 05:45:59;;;;;;;4.03;1.20;;;14.30;97.60;;;;;;5115702;28;20477;-61
2022/07/10 05:48:26;;;;;;;3.10;1.37;;;14.40;97.50;;;;;;5115137;28;20977;-61
2022/07/10 05:50:53;;;;;;;4.23;1.70;;;14.50;97.30;;;;;;5115751;28;20446;-61
2022/07/10 05:53:22;;;;;;;8.83;1.80;;;14.50;96.80;;;;;;5115672;28;20536;-61
2022/07/10 05:55:50;;;;;;;7.17;1.27;;;14.60;96.80;;;;;;5115551;28;20552;-62
2022/07/10 05:58:17;;;;;;;5.13;1.70;;;14.70;96.50;;;;;;5115976;28;20465;-61
2022/07/10 06:00:45;;;;;;;5.53;1.03;;;14.80;96.60;;;;;;5116012;28;20437;-61
2022/07/10 06:03:13;;;;;;;4.40;1.27;;;14.90;95.90;;;;;;5115417;28;20449;-61
2022/07/10 06:05:40;;;;;;;3.37;1.50;;;14.90;95.60;;;;;;5115706;28;20961;-61
2022/07/10 06:08:08;;;;;;;3.70;1.80;;;15.00;95.40;;;;;;5115053;28;20510;-61
2022/07/10 06:10:36;;;;;;;3.70;1.40;;;15.00;94.90;;;;;;5115593;28;20498;-62
2022/07/10 06:13:04;;;;;;;3.00;1.67;;;15.10;94.70;;;;;;5114769;28;20542;-62
2022/07/10 06:15:31;;;;;;;2.30;1.30;;;15.30;94.60;;;;;;5114105;28;20472;-61
2022/07/10 06:17:58;;;;;;;5.30;1.70;;;15.30;94.00;;;;;;5114409;28;20533;-61
2022/07/10 06:20:26;;;;;;;2.43;1.30;;;15.30;93.70;;;;;;5115026;28;20463;-61
2022/07/10 06:22:53;;;;;;;4.87;1.70;;;15.40;93.80;;;;;;5115326;28;20438;-61
2022/07/10 06:25:21;;;;;;;6.93;1.57;;;15.40;93.60;;;;;;5115151;28;20462;-61
2022/07/10 06:27:50;;;;;;;4.93;1.40;;;15.50;93.30;;;;;;5114882;28;21005;-61
2022/07/10 06:30:17;;;;;;;3.70;1.53;;;15.60;93.40;;;;;;5114876;28;21021;-62
2022/07/10 06:32:45;;;;;;;3.93;1.73;;;15.70;92.70;;;;;;5113824;28;20537;-61
2022/07/10 06:35:12;;;;;;;6.40;1.30;;;15.80;92.20;;;;;;5114583;28;20469;-61
2022/07/10 06:37:39;;;;;;;1.97;1.20;;;15.80;92.10;;;;;;5114672;28;20976;-61
2022/07/10 06:40:08;;;;;;;8.33;1.67;;;15.80;92.10;;;;;;5114704;28;20884;-61
2022/07/10 06:42:35;;;;;;;3.60;1.30;;;15.80;92.00;;;;;;5114960;28;20755;-61
2022/07/10 06:45:05;;;;;;;3.40;1.30;;;15.90;91.70;;;;;;5114564;28;20968;-61
2022/07/10 06:50:16;;;;;;;2.43;1.00;;;15.90;91.80;;;;;;5115805;28;20543;-62
2022/07/10 06:52:44;;;;;;;6.00;1.50;;;16.10;91.20;;;;;;5114361;28;20481;-62
2022/07/10 06:55:11;;;;;;;4.80;1.27;;;16.30;91.00;;;;;;5114811;28;20553;-61
2022/07/10 06:57:40;;;;;;;5.87;1.40;;;16.60;90.20;;;;;;5114557;28;20532;-61
2022/07/10 07:00:11;;;;;;;3.63;1.30;;;16.80;88.70;;;;;;5114693;28;20441;-61
2022/07/10 07:02:38;;;;;;;6.13;1.13;;;16.90;87.10;;;;;;5114282;28;20441;-61
2022/07/10 07:05:07;;;;;;;5.37;1.37;;;17.00;86.20;;;;;;5114008;28;20517;-61
2022/07/10 07:07:34;;;;;;;1.77;1.33;;;17.00;85.50;;;;;;5114372;28;20528;-62
2022/07/10 07:10:01;;;;;;;4.73;1.10;;;16.90;83.40;;;;;;5114216;28;20481;-61
2022/07/10 07:12:29;;;;;;;4.13;1.33;;;16.80;83.10;;;;;;5114492;28;20833;-61
2022/07/10 07:14:56;;;;;;;3.83;1.20;;;16.70;83.10;;;;;;5113770;28;20534;-61
2022/07/10 07:17:33;;;;;;;7.27;1.80;;;16.60;83.30;;;;;;5104497;28;20800;-61
2022/07/10 07:25:29;;;;;;;4.73;1.60;;;16.80;82.20;;;;;;5103700;28;20444;-61
2022/07/10 07:27:57;;;;;;;2.50;1.33;;;16.90;81.80;;;;;;5113320;28;20445;-61
2022/07/10 07:30:24;;;;;;;3.13;1.17;;;17.00;81.70;;;;;;5113025;28;20530;-61
2022/07/10 07:32:53;;;;;;;4.23;1.50;;;17.00;80.00;;;;;;5113942;28;20445;-61
2022/07/10 07:35:20;;;;;;;5.10;1.40;;;17.00;79.50;;;;;;5113296;28;20871;-61
2022/07/10 07:37:49;;;;;;;3.17;1.37;;;17.00;78.90;;;;;;5113039;28;20457;-61
2022/07/10 07:40:19;;;;;;;5.77;1.73;;;17.10;78.80;;;;;;5113435;28;20441;-61
2022/07/10 07:42:47;;;;;;;5.97;1.67;;;17.20;77.30;;;;;;5114598;28;20445;-62
2022/07/10 07:45:14;;;;;;;3.00;1.20;;;17.40;75.30;;;;;;5112785;28;20465;-61
2022/07/10 07:47:46;;;;;;;3.30;1.40;;;17.50;73.10;;;;;;5113331;28;20473;-62
2022/07/10 07:50:15;;;;;;;2.53;1.20;;;17.60;71.90;;;;;;5113342;28;20892;-62
2022/07/10 07:52:43;;;;;;;5.53;1.27;;;17.60;70.00;;;;;;5113979;28;20433;-62
2022/07/10 07:55:11;;;;;;;2.47;1.77;;;17.50;68.50;;;;;;5113379;28;20465;-62
2022/07/10 07:57:38;;;;;;;3.80;1.20;;;17.40;68.70;;;;;;5113742;28;20535;-62
2022/07/10 08:00:08;;;;;;;3.10;1.20;;;17.40;68.70;;;;;;5113458;28;20441;-62
2022/07/10 08:02:35;;;;;;;6.97;1.60;;;17.50;68.30;;;;;;5113215;28;20449;-62
2022/07/10 08:05:04;;;;;;;3.30;1.57;;;17.60;67.80;;;;;;5113025;28;20847;-62
2022/07/10 08:07:39;;;;;;;3.53;1.57;;;17.70;66.90;;;;;;5113659;28;20452;-61
2022/07/10 08:10:08;;;;;;;5.47;1.90;;;17.70;66.20;;;;;;5113197;28;20460;-62
2022/07/10 08:12:36;;;;;;;3.07;1.30;;;17.70;66.00;;;;;;5113675;28;20449;-62
2022/07/10 08:15:04;;;;;;;4.00;1.27;;;17.80;65.90;;;;;;5113104;28;20979;-61
2022/07/10 08:17:31;;;;;;;3.67;1.40;;;18.00;65.60;;;;;;5113429;28;20495;-61
2022/07/10 08:19:58;;;;;;;6.10;1.70;;;18.10;65.10;;;;;;5113121;28;20482;-62
2022/07/10 08:22:25;;;;;;;7.83;1.93;;;18.20;64.40;;;;;;5113480;28;20534;-62
2022/07/10 08:24:56;;;;;;;3.87;1.47;;;18.30;64.10;;;;;;5113344;28;20552;-62
2022/07/10 08:27:23;;;;;;;7.30;1.73;;;18.40;62.90;;;;;;5113340;28;20827;-60
2022/07/10 08:29:51;;;;;;;4.90;1.60;;;18.40;61.20;;;;;;5112930;28;21000;-62
2022/07/10 08:32:18;;;;;;;3.93;1.30;;;18.40;60.10;;;;;;5113120;28;20437;-63
2022/07/10 08:34:45;;;;;;;7.30;1.30;;;18.30;58.90;;;;;;5112171;28;20947;-62
2022/07/10 08:37:12;;;;;;;4.83;1.50;;;18.10;58.40;;;;;;5113068;28;20528;-61
2022/07/10 08:39:40;;;;;;;2.50;1.60;;;18.20;58.40;;;;;;5112343;28;20499;-61
2022/07/10 08:42:12;;;;;;;7.53;1.57;;;18.30;57.30;;;;;;5113120;28;20473;-60
2022/07/10 08:44:39;;;;;;;2.00;1.27;;;18.40;56.40;;;;;;5112145;28;20473;-61
2022/07/10 08:47:06;;;;;;;4.50;1.43;;;18.40;56.10;;;;;;5113095;28;20536;-62
2022/07/10 08:49:35;;;;;;;3.67;1.50;;;18.40;55.50;;;;;;5112517;28;20918;-62
2022/07/10 08:52:05;;;;;;;6.80;1.60;;;18.40;55.80;;;;;;5113006;28;20549;-62
2022/07/10 08:54:34;;;;;;;3.70;1.10;;;18.50;55.60;;;;;;5113493;28;20569;-62
2022/07/10 08:57:03;;;;;;;6.43;1.40;;;18.60;55.00;;;;;;5116471;28;20445;-62
2022/07/10 08:59:32;;;;;;;6.17;1.67;;;18.60;55.00;;;;;;5116488;28;20495;-62
2022/07/10 09:02:00;;;;;;;4.67;1.90;;;18.50;55.10;;;;;;5116890;28;20441;-62
2022/07/10 09:04:28;;;;;;;6.43;1.47;;;18.50;55.20;;;;;;5116830;28;20560;-62
2022/07/10 09:06:56;;;;;;;3.47;1.63;;;18.40;55.40;;;;;;5117071;28;20506;-64
2022/07/10 09:09:25;;;;;;;3.73;1.60;;;18.30;55.60;;;;;;5116379;28;21056;-63
2022/07/10 09:11:57;;;;;;;5.47;1.73;;;18.30;56.20;;;;;;5116433;28;20449;-63
2022/07/10 09:14:28;;;;;;;4.20;1.40;;;18.20;57.40;;;;;;5116185;28;20477;-63
2022/07/10 09:16:56;;;;;;;4.87;1.60;;;18.00;58.90;;;;;;5116803;28;20429;-63
2022/07/10 09:19:25;;;;;;;3.77;1.43;;;17.80;60.10;;;;;;5116296;28;20445;-63
2022/07/10 09:21:54;;;;;;;3.73;1.37;;;17.60;62.30;;;;;;5116163;28;20490;-63
2022/07/10 09:24:23;;;;;;;3.37;1.47;;;17.50;63.40;;;;;;5116407;28;20876;-61
2022/07/10 09:27:03;;;;;;;2.47;1.53;;;17.50;64.20;;;;;;5116270;28;20445;-63
2022/07/10 09:29:31;;;;;;;6.53;1.67;;;17.40;64.90;;;;;;5115898;28;20465;-63
2022/07/10 09:32:01;;;;;;;6.63;1.63;;;17.50;65.40;;;;;;5116197;28;20452;-62
2022/07/10 09:34:40;;;;;;;5.27;2.00;;;17.60;65.70;;;;;;5115748;28;20461;-62
2022/07/10 09:37:23;;;;;;;5.07;1.90;;;17.90;65.30;;;;;;5116159;28;20449;-61
2022/07/10 09:39:56;;;;;;;4.20;1.30;;;18.00;64.30;;;;;;5115995;28;20509;-62
2022/07/10 09:42:31;;;;;;;4.53;1.50;;;18.00;63.90;;;;;;5115681;28;20933;-62
2022/07/10 09:45:18;;;;;;;5.07;1.50;;;17.90;64.00;;;;;;5115874;28;20522;-62
2022/07/10 09:47:54;;;;;;;3.63;1.40;;;17.80;65.20;;;;;;5116321;28;20478;-60
2022/07/10 09:50:24;;;;;;;4.47;2.60;;;17.60;66.70;;;;;;5115574;28;20980;-60
2022/07/10 09:52:54;;;;;;;2.90;1.73;;;17.40;67.80;;;;;;5115409;28;20456;-60
2022/07/10 09:55:24;;;;;;;4.50;1.47;;;17.40;68.10;;;;;;5115257;28;20510;-61
2022/07/10 09:57:56;;;;;;;4.53;1.40;;;17.40;68.20;;;;;;5115800;28;20442;-60
2022/07/10 10:00:26;;;;;;;6.80;2.00;;;17.50;67.60;;;;;;5114977;28;20436;-61
2022/07/10 10:03:00;;;;;;;4.67;1.97;;;17.70;67.40;;;;;;5115277;28;20418;-62
2022/07/10 10:05:35;;;;;;;5.83;1.97;;;18.00;66.10;;;;;;5115304;28;20968;-61
2022/07/10 10:08:12;;;;;;;7.87;2.60;;;18.60;64.70;;;;;;5115565;28;20429;-61
2022/07/10 10:10:45;;;;;;;5.83;2.17;;;19.30;60.60;;;;;;5115013;28;20487;-61
2022/07/10 10:13:15;;;;;;;7.80;1.70;;;19.70;56.00;;;;;;5115193;28;20434;-61
2022/07/10 10:15:44;;;;;;;7.23;1.60;;;19.80;55.00;;;;;;5114967;28;20520;-61
2022/07/10 10:18:14;;;;;;;3.67;1.53;;;19.70;53.90;;;;;;5144470;22;20483;-59
2022/07/10 10:20:45;;;;;;;5.03;1.77;;;19.70;53.40;;;;;;5095446;28;20430;-61
2022/07/10 10:23:15;;;;;;;2.70;1.20;;;19.70;53.60;;;;;;5095060;28;20983;-61
2022/07/10 10:25:42;;;;;;;4.17;1.60;;;19.60;53.70;;;;;;5095106;28;20439;-62
2022/07/10 10:28:11;;;;;;;5.67;1.53;;;19.60;53.80;;;;;;5105587;28;20544;-61
2022/07/10 10:30:42;;;;;;;4.10;1.33;;;19.50;53.90;;;;;;5116220;28;20526;-62
2022/07/10 10:33:51;;;;;;;3.20;1.40;;;19.50;53.80;;;;;;5115562;28;20923;-60
2022/07/10 10:36:47;;;;;;;5.20;1.77;;;19.50;53.70;;;;;;5115241;28;20430;-62
2022/07/10 10:39:16;;;;;;;5.60;1.43;;;19.70;53.80;;;;;;5112005;28;20477;-62
2022/07/10 10:41:47;;;;;;;3.33;1.20;;;19.90;53.00;;;;;;5115019;28;20442;-61
2022/07/10 10:44:37;;;;;;;3.53;1.53;;;20.00;52.60;;;;;;5114847;28;20512;-61
2022/07/10 10:47:07;;;;;;;4.20;1.40;;;19.90;52.20;;;;;;5114544;28;20974;-61
2022/07/10 10:49:52;;;;;;;8.00;1.47;;;19.90;51.60;;;;;;5114736;28;20441;-61
2022/07/10 10:52:21;;;;;;;4.77;1.67;;;20.00;50.30;;;;;;5115095;28;20478;-61
2022/07/10 10:55:07;;;;;;;5.53;2.10;;;20.10;50.40;;;;;;5114956;28;20517;-60
2022/07/10 10:57:53;;;;;;;3.53;1.23;;;20.20;50.30;;;;;;5114744;28;20469;-60
2022/07/10 11:00:43;;;;;;;2.20;1.20;;;20.50;50.10;;;;;;5114971;28;20479;-63
2022/07/10 11:03:18;;;;;;;3.20;1.37;;;20.80;48.80;;;;;;5114653;28;20426;-60
2022/07/10 11:05:48;;;;;;;4.37;1.57;;;20.90;47.80;;;;;;5114943;28;20430;-62
2022/07/10 11:08:37;;;;;;;3.20;1.27;;;20.90;47.80;;;;;;5114511;28;20490;-61
2022/07/10 11:11:37;;;;;;;3.10;1.40;;;20.80;46.20;;;;;;5114434;28;20515;-63
2022/07/10 11:14:05;;;;;;;3.67;1.50;;;20.80;46.50;;;;;;5114104;28;20432;-62
2022/07/10 11:16:33;;;;;;;2.83;1.50;;;20.60;47.20;;;;;;5113904;28;20442;-61
2022/07/10 11:19:02;;;;;;;5.10;1.73;;;20.40;48.10;;;;;;5113476;28;20843;-61
2022/07/10 11:21:46;;;;;;;7.10;1.30;;;20.30;48.90;;;;;;5114039;28;20438;-61
2022/07/10 11:24:29;;;;;;;2.30;1.30;;;20.50;49.00;;;;;;5114656;28;20430;-61
2022/07/10 11:27:05;;;;;;;7.77;1.30;;;20.50;48.30;;;;;;5114114;28;20906;-62
2022/07/10 11:29:39;;;;;;;4.67;1.30;;;20.70;48.00;;;;;;5114205;28;20862;-63
2022/07/10 11:32:07;;;;;;;5.50;1.70;;;21.00;48.10;;;;;;5114187;28;20874;-62
2022/07/10 11:34:38;;;;;;;6.33;1.47;;;21.00;46.20;;;;;;5114276;28;20448;-60
2022/07/10 11:37:15;;;;;;;2.23;1.37;;;21.10;46.10;;;;;;5113903;28;20465;-63
2022/07/10 11:39:43;;;;;;;3.80;1.40;;;21.20;45.40;;;;;;5113766;28;20462;-61
2022/07/10 11:42:10;;;;;;;3.00;1.40;;;21.20;45.40;;;;;;5113858;28;20446;-61
2022/07/10 11:44:38;;;;;;;4.60;1.40;;;21.40;45.20;;;;;;5114065;28;20450;-61
2022/07/10 11:47:07;;;;;;;4.20;1.40;;;21.30;45.00;;;;;;5113755;28;20796;-62
2022/07/10 11:49:35;;;;;;;2.50;1.30;;;21.10;45.20;;;;;;5114272;28;20519;-62
2022/07/10 11:52:04;;;;;;;4.30;1.70;;;20.80;46.10;;;;;;5113746;28;20489;-61
2022/07/10 11:54:33;;;;;;;4.80;2.00;;;20.60;46.70;;;;;;5114036;28;20447;-62
2022/07/10 11:57:08;;;;;;;2.83;1.70;;;20.50;46.90;;;;;;5113563;28;20442;-62
2022/07/10 11:59:35;;;;;;;4.70;2.17;;;20.60;47.10;;;;;;5113248;28;20430;-63
2022/07/10 12:02:02;;;;;;;4.27;1.40;;;20.50;47.00;;;;;;5094174;28;20470;-62
2022/07/10 12:04:31;;;;;;;3.30;1.47;;;20.40;47.60;;;;;;5111882;28;20449;-61
2022/07/10 12:06:59;;;;;;;3.40;1.07;;;20.40;48.70;;;;;;5111956;28;20449;-61
2022/07/10 12:09:26;;;;;;;6.20;1.30;;;20.30;49.60;;;;;;5113651;28;20555;-61
2022/07/10 12:12:03;;;;;;;3.97;1.50;;;20.30;50.30;;;;;;5113328;28;20507;-61
2022/07/10 12:14:30;;;;;;;3.40;1.60;;;20.50;50.40;;;;;;5113697;28;21006;-62
2022/07/10 12:16:59;;;;;;;2.67;1.40;;;20.70;50.10;;;;;;5117333;28;20451;-61
2022/07/10 12:19:30;;;;;;;5.20;1.50;;;20.90;49.90;;;;;;5115438;28;20434;-63
2022/07/10 12:21:58;;;;;;;4.23;1.87;;;20.80;49.50;;;;;;5114247;28;20473;-65
2022/07/10 12:24:26;;;;;;;3.57;1.10;;;20.60;49.80;;;;;;5114485;28;20463;-63
2022/07/10 12:26:55;;;;;;;3.33;1.43;;;20.40;50.40;;;;;;5114969;28;20512;-64
2022/07/10 12:29:25;;;;;;;4.17;1.80;;;20.10;51.20;;;;;;5115054;28;20468;-64
2022/07/10 12:31:55;;;;;;;5.43;1.80;;;19.90;51.90;;;;;;5119217;28;21004;-64
2022/07/10 12:34:35;;;;;;;8.13;2.20;;;19.70;52.40;;;;;;5119127;28;20464;-64
2022/07/10 12:37:09;;;;;;;4.90;2.00;;;19.90;52.70;;;;;;5118686;28;20421;-64
2022/07/10 12:39:38;;;;;;;2.90;1.30;;;20.10;52.40;;;;;;5118857;28;20804;-64
2022/07/10 12:42:07;;;;;;;3.73;1.57;;;20.30;52.20;;;;;;5117920;28;20437;-63
2022/07/10 12:44:38;;;;;;;3.03;1.60;;;20.40;52.20;;;;;;5117790;28;20449;-64
2022/07/10 12:47:10;;;;;;;7.00;1.50;;;20.40;52.40;;;;;;5117883;28;20453;-64
2022/07/10 12:49:53;;;;;;;3.70;1.50;;;20.30;53.20;;;;;;5117853;28;20449;-61
2022/07/10 12:52:22;;;;;;;1.70;1.23;;;20.20;52.80;;;;;;5117942;28;20477;-61
2022/07/10 12:54:50;;;;;;;4.13;1.57;;;20.10;53.10;;;;;;5117960;28;20449;-59
2022/07/10 12:57:17;;;;;;;5.07;2.10;;;20.10;53.70;;;;;;5117974;28;20497;-61
2022/07/10 12:59:46;;;;;;;6.33;1.40;;;19.90;54.10;;;;;;5117746;28;20490;-60
2022/07/10 13:02:18;;;;;;;3.83;1.40;;;19.60;54.70;;;;;;5117663;28;20441;-61
2022/07/10 13:04:54;;;;;;;4.27;1.53;;;19.40;55.40;;;;;;5118285;28;20449;-61
2022/07/10 13:07:29;;;;;;;2.80;1.20;;;19.20;56.00;;;;;;5118572;28;20476;-61
2022/07/10 13:09:56;;;;;;;3.33;1.30;;;19.10;56.40;;;;;;5117456;28;20478;-62
2022/07/10 13:12:24;;;;;;;4.30;1.40;;;19.00;56.80;;;;;;5118902;28;20481;-62
2022/07/10 13:14:52;;;;;;;5.70;2.13;;;18.90;57.20;;;;;;5121725;28;20445;-65
2022/07/10 13:17:20;;;;;;;2.30;1.60;;;18.80;57.50;;;;;;5120833;28;20473;-60